Time;durP1;ratioP1;P1;durP2;ratioP2;P2;SDS_P1;SDS_P2;PMS_P1;PMS_P2;Temp;Humidity;BMP_temperature;BMP_pressure;BME280_temperature;BME280_humidity;BME280_pressure;Samples;Min_cycle;Max_cycle;Signal;HPM_P1;HPM_P2
2022/11/25 00:01:12;;;;;;;;;;;;;;;14.70;52.68;99972.53;5000879;28;6966;-75
2022/11/25 00:03:40;;;;;;;;;;;;;;;14.72;52.14;99976.06;4991262;28;6979;-75
2022/11/25 00:06:21;;;;;;;;;;;;;;;14.75;52.58;99970.09;4984882;28;8492;-75
2022/11/25 00:08:52;;;;;;;;;;;;;;;14.77;52.41;99972.75;5003262;28;6800;-75
2022/11/25 00:11:18;;;;;;;;;;;;;;;14.75;52.73;99964.94;4998583;28;6996;-75
2022/11/25 00:13:46;;;;;;;;;;;;;;;14.77;53.04;99963.28;5002025;28;7208;-75
2022/11/25 00:16:17;;;;;;;;;;;;;;;14.78;52.71;99966.75;5028244;28;9159;-75
2022/11/25 00:18:45;;;;;;;;;;;;;;;14.79;52.39;99951.31;5001658;28;7008;-74
2022/11/25 00:21:15;;;;;;;;;;;;;;;14.81;52.59;99954.78;4999994;28;8133;-75
2022/11/25 00:23:41;;;;;;;;;;;;;;;14.84;52.47;99960.00;4999611;28;7224;-75
2022/11/25 00:26:13;;;;;;;;;;;;;;;14.86;52.04;99960.91;4988924;28;7003;-75
2022/11/25 00:28:42;;;;;;;;;;;;;;;14.88;52.49;99944.63;4994390;28;6896;-75
2022/11/25 00:31:13;;;;;;;;;;;;;;;14.89;52.58;99954.09;5001602;28;7209;-75
2022/11/25 00:33:40;;;;;;;;;;;;;;;14.87;52.28;99943.75;5034781;28;6999;-75
2022/11/25 00:36:20;;;;;;;;;;;;;;;14.89;52.08;99942.06;5001860;28;6784;-75
2022/11/25 00:38:47;;;;;;;;;;;;;;;14.93;52.39;99943.00;5002728;28;7071;-75
2022/11/25 00:46:42;;;;;;;;;;;;;;;14.98;52.67;99936.25;5004876;28;6808;-74
2022/11/25 00:49:08;;;;;;;;;;;;;;;14.99;52.37;99933.69;5002493;28;6955;-75
2022/11/25 00:51:34;;;;;;;;;;;;;;;14.99;52.26;99930.25;5002695;28;6985;-75
2022/11/25 00:53:59;;;;;;;;;;;;;;;15.03;51.89;99932.06;5016421;28;6938;-74
2022/11/25 00:56:26;;;;;;;;;;;;;;;15.03;51.81;99932.06;5002953;28;7153;-74
2022/11/25 00:58:53;;;;;;;;;;;;;;;15.06;51.79;99939.00;4993978;28;6776;-75
2022/11/25 01:01:18;;;;;;;;;;;;;;;15.09;52.04;99936.47;5000523;28;6886;-75
2022/11/25 01:03:47;;;;;;;;;;;;;;;15.12;52.11;99940.00;5002299;28;7042;-75
2022/11/25 01:06:12;;;;;;;;;;;;;;;15.12;51.55;99937.41;5005892;28;6811;-75
2022/11/25 01:08:38;;;;;;;;;;;;;;;15.15;51.68;99934.03;5020768;28;7012;-75
2022/11/25 01:11:11;;;;;;;;;;;;;;;15.16;51.55;99937.47;4998614;28;7253;-74
2022/11/25 01:13:37;;;;;;;;;;;;;;;15.18;52.16;99933.25;5010121;28;6856;-75
2022/11/25 01:16:05;;;;;;;;;;;;;;;15.18;52.06;99943.56;5005030;28;7242;-75
2022/11/25 01:18:32;;;;;;;;;;;;;;;15.23;51.91;99937.66;4985134;28;7017;-75
2022/11/25 01:21:31;;;;;;;;;;;;;;;15.22;51.94;99946.25;5013783;28;8785;-74
2022/11/25 01:24:03;;;;;;;;;;;;;;;15.25;51.67;99940.25;5010631;28;6989;-75
2022/11/25 01:26:30;;;;;;;;;;;;;;;15.26;51.93;99935.13;5016194;28;7245;-75
2022/11/25 01:29:03;;;;;;;;;;;;;;;15.28;51.84;99938.63;4993905;28;6816;-75
2022/11/25 01:31:35;;;;;;;;;;;;;;;15.32;51.57;99939.56;5014839;28;7256;-75
2022/11/25 01:34:06;;;;;;;;;;;;;;;15.35;51.63;99937.03;5013897;28;6816;-75
2022/11/25 01:36:33;;;;;;;;;;;;;;;15.38;50.63;99933.66;4996381;28;6784;-75
2022/11/25 01:38:59;;;;;;;;;;;;;;;15.36;51.44;99933.63;5000469;28;6943;-74
2022/11/25 01:41:29;;;;;;;;;;;;;;;15.36;51.36;99931.06;4995888;28;6788;-75
2022/11/25 01:44:29;;;;;;;;;;;;;;;15.30;51.22;99942.94;5011393;28;7251;-75
2022/11/25 01:47:13;;;;;;;;;;;;;;;15.26;51.54;99944.59;4962729;28;7057;-75
2022/11/25 01:49:45;;;;;;;;;;;;;;;15.22;51.84;99945.38;4989204;28;9910;-74
2022/11/25 01:52:26;;;;;;;;;;;;;;;15.21;51.95;99944.50;4971037;28;7002;-75
2022/11/25 01:55:19;;;;;;;;;;;;;;;15.19;51.98;99946.16;5007989;28;6986;-74
2022/11/25 01:57:57;;;;;;;;;;;;;;;15.20;51.20;99945.31;4968136;28;7148;-75
2022/11/25 02:00:23;;;;;;;;;;;;;;;15.23;51.73;99957.44;4986567;28;7217;-75
2022/11/25 02:02:52;;;;;;;;;;;;;;;15.23;51.53;99948.00;5001957;28;6964;-75
2022/11/25 02:05:25;;;;;;;;;;;;;;;15.25;51.08;99946.31;5005391;28;7128;-75
2022/11/25 02:07:53;;;;;;;;;;;;;;;15.26;51.18;99953.22;5006346;28;7071;-75
2022/11/25 02:10:25;;;;;;;;;;;;;;;15.27;51.05;99956.69;5002572;28;7054;-75
2022/11/25 02:12:52;;;;;;;;;;;;;;;15.27;50.84;99954.94;5018962;28;6978;-75
2022/11/25 02:15:20;;;;;;;;;;;;;;;15.27;50.73;99959.25;5017445;28;7063;-75
2022/11/25 02:17:46;;;;;;;;;;;;;;;15.25;51.11;99964.38;5017235;28;6995;-75
2022/11/25 02:20:20;;;;;;;;;;;;;;;15.26;51.59;99954.94;5008256;28;6926;-75
2022/11/25 02:23:09;;;;;;;;;;;;;;;15.26;51.66;99957.50;5013398;28;6986;-75
2022/11/25 02:25:40;;;;;;;;;;;;;;;15.24;51.43;99962.63;4993012;28;6962;-75
2022/11/25 02:28:13;;;;;;;;;;;;;;;15.20;51.36;99968.56;4995929;28;7203;-75
2022/11/25 02:30:40;;;;;;;;;;;;;;;15.19;50.45;99976.28;4996387;28;7241;-75
2022/11/25 02:33:06;;;;;;;;;;;;;;;15.15;51.57;99980.50;4981938;28;6972;-75
2022/11/25 02:35:39;;;;;;;;;;;;;;;15.14;51.41;99979.63;5001432;28;6950;-75
2022/11/25 02:38:41;;;;;;;;;;;;;;;15.13;51.17;99972.72;4978332;28;6976;-75
2022/11/25 02:41:16;;;;;;;;;;;;;;;15.10;51.40;99972.66;5002641;28;6972;-75
2022/11/25 02:43:42;;;;;;;;;;;;;;;15.13;50.84;99977.88;5015066;28;7088;-75
2022/11/25 02:46:12;;;;;;;;;;;;;;;15.12;50.89;99975.28;5001500;28;7086;-75
2022/11/25 02:48:40;;;;;;;;;;;;;;;15.13;51.22;99977.88;5000274;28;6800;-75
2022/11/25 02:51:10;;;;;;;;;;;;;;;15.16;50.57;99987.41;4997570;28;7197;-74
2022/11/25 02:53:35;;;;;;;;;;;;;;;15.15;51.36;99980.50;5011085;28;6795;-75
2022/11/25 02:56:01;;;;;;;;;;;;;;;15.15;50.99;99983.09;5002170;28;6792;-75
2022/11/25 02:58:28;;;;;;;;;;;;;;;15.12;50.82;99973.56;4998868;28;6932;-75
2022/11/25 03:00:54;;;;;;;;;;;;;;;15.11;51.32;99976.97;4998456;28;6844;-75
2022/11/25 03:03:19;;;;;;;;;;;;;;;15.12;50.80;99986.47;4998182;28;6941;-75
2022/11/25 03:05:45;;;;;;;;;;;;;;;15.12;51.21;99989.03;4999708;28;6993;-75
2022/11/25 03:08:11;;;;;;;;;;;;;;;15.10;50.82;99995.00;4997304;28;6780;-75
2022/11/25 03:10:38;;;;;;;;;;;;;;;15.09;50.86;100001.00;5018956;28;7256;-75
2022/11/25 03:13:07;;;;;;;;;;;;;;;15.06;51.29;99994.06;4984517;28;7234;-75
2022/11/25 03:15:34;;;;;;;;;;;;;;;15.05;50.98;100004.34;4984173;28;6992;-75
2022/11/25 03:18:00;;;;;;;;;;;;;;;14.97;51.63;100006.78;4986787;28;7255;-75
2022/11/25 03:20:26;;;;;;;;;;;;;;;14.85;51.67;100018.50;4999631;28;6792;-75
2022/11/25 03:22:51;;;;;;;;;;;;;;;14.72;51.76;100016.44;5000865;28;7223;-75
2022/11/25 03:25:18;;;;;;;;;;;;;;;14.57;52.09;100027.25;5001843;28;7190;-75
2022/11/25 03:27:44;;;;;;;;;;;;;;;14.41;52.58;100025.97;5033390;28;7474;-75
2022/11/25 03:30:16;;;;;;;;;;;;;;;14.27;52.92;100023.88;4999969;28;6775;-75
2022/11/25 03:32:41;;;;;;;;;;;;;;;14.14;53.20;100040.72;5000537;28;6996;-75
2022/11/25 03:35:09;;;;;;;;;;;;;;;14.03;54.52;100031.81;5001047;28;7240;-76
2022/11/25 03:37:34;;;;;;;;;;;;;;;13.96;54.42;100033.38;4997046;28;6804;-75
2022/11/25 03:40:00;;;;;;;;;;;;;;;13.91;54.59;100042.69;5001335;28;6780;-75
2022/11/25 03:42:26;;;;;;;;;;;;;;;13.85;54.96;100040.78;5000678;28;6979;-75
2022/11/25 03:44:51;;;;;;;;;;;;;;;13.80;55.08;100041.47;4989171;28;7025;-76
2022/11/25 03:47:17;;;;;;;;;;;;;;;13.74;55.45;100045.63;4991030;28;6851;-75
2022/11/25 03:49:43;;;;;;;;;;;;;;;13.70;55.87;100041.19;4997365;28;6772;-77
2022/11/25 03:52:08;;;;;;;;;;;;;;;13.67;55.47;100033.41;5001743;28;6768;-76
2022/11/25 03:54:34;;;;;;;;;;;;;;;13.64;55.98;100038.47;4986561;28;6956;-77
2022/11/25 03:56:59;;;;;;;;;;;;;;;13.61;55.76;100033.19;5003081;28;6840;-76
2022/11/25 03:59:25;;;;;;;;;;;;;;;13.62;55.63;100040.13;5034761;28;7116;-76
2022/11/25 04:01:51;;;;;;;;;;;;;;;13.65;55.96;100045.38;5026598;28;7857;-76
2022/11/25 04:04:16;;;;;;;;;;;;;;;13.67;55.78;100030.81;4994455;28;6809;-77
2022/11/25 04:06:42;;;;;;;;;;;;;;;13.72;56.66;100013.81;4995402;28;6788;-76
2022/11/25 04:09:10;;;;;;;;;;;;;;;13.77;56.55;100010.47;5005851;28;6815;-76
2022/11/25 04:14:21;;;;;;;;;;;;;;;13.71;55.86;100032.69;4999055;28;6796;-76
2022/11/25 04:16:46;;;;;;;;;;;;;;;13.63;55.94;100036.72;4987043;28;7022;-76
2022/11/25 04:19:12;;;;;;;;;;;;;;;13.58;56.76;100040.84;5038123;28;7448;-77
2022/11/25 04:21:37;;;;;;;;;;;;;;;13.52;56.80;100043.22;5006929;28;6856;-77
2022/11/25 04:24:03;;;;;;;;;;;;;;;13.47;56.92;100043.09;5019445;28;7219;-75
2022/11/25 04:26:29;;;;;;;;;;;;;;;13.47;56.60;100054.28;5001407;28;6788;-76
2022/11/25 04:28:55;;;;;;;;;;;;;;;13.48;56.89;100070.59;5008504;28;6940;-76
2022/11/25 04:31:21;;;;;;;;;;;;;;;13.51;57.73;100067.22;5020962;28;6974;-76
2022/11/25 04:33:47;;;;;;;;;;;;;;;13.57;57.30;100076.03;5018882;28;7175;-76
2022/11/25 04:36:14;;;;;;;;;;;;;;;13.63;57.48;100083.06;5007687;28;7202;-76
2022/11/25 04:38:39;;;;;;;;;;;;;;;13.67;56.96;100081.47;5007297;28;7319;-77
2022/11/25 04:41:05;;;;;;;;;;;;;;;13.71;57.37;100089.34;5004756;28;6771;-76
2022/11/25 04:43:31;;;;;;;;;;;;;;;13.75;57.34;100090.28;5003691;28;7177;-75
2022/11/25 04:45:58;;;;;;;;;;;;;;;13.78;57.40;100097.22;5003549;28;6776;-76
2022/11/25 04:48:24;;;;;;;;;;;;;;;13.79;57.30;100086.09;5003253;28;6812;-76
2022/11/25 04:50:49;;;;;;;;;;;;;;;13.82;57.06;100088.78;5004378;28;6856;-76
2022/11/25 04:53:15;;;;;;;;;;;;;;;13.82;57.23;100097.38;4984865;28;6957;-76
2022/11/25 04:55:40;;;;;;;;;;;;;;;13.82;57.45;100099.94;5015273;28;6958;-76
2022/11/25 04:58:06;;;;;;;;;;;;;;;13.84;57.06;100112.88;4981608;28;7241;-77
2022/11/25 05:00:32;;;;;;;;;;;;;;;13.84;56.79;100111.16;5029211;28;11916;-77
2022/11/25 05:02:57;;;;;;;;;;;;;;;13.85;57.54;100114.63;4998340;28;6929;-75
2022/11/25 05:05:23;;;;;;;;;;;;;;;13.85;56.92;100114.63;4998489;28;6788;-77
2022/11/25 05:07:49;;;;;;;;;;;;;;;13.85;57.15;100109.47;4995058;28;8752;-76
2022/11/25 05:10:14;;;;;;;;;;;;;;;13.85;56.59;100106.88;5005390;28;6825;-75
2022/11/25 05:12:40;;;;;;;;;;;;;;;13.83;57.72;100116.28;5004793;28;7294;-77
2022/11/25 05:15:07;;;;;;;;;;;;;;;13.81;57.50;100115.34;5005075;28;6939;-75
2022/11/25 05:17:34;;;;;;;;;;;;;;;13.78;57.43;100122.97;5005786;28;7223;-77
2022/11/25 05:20:00;;;;;;;;;;;;;;;13.74;57.03;100128.06;4999926;28;6792;-75
2022/11/25 05:22:31;;;;;;;;;;;;;;;13.69;57.35;100127.03;5014125;28;6796;-77
2022/11/25 05:24:57;;;;;;;;;;;;;;;13.64;57.06;100130.28;4991137;28;6974;-75
2022/11/25 05:27:26;;;;;;;;;;;;;;;13.58;57.25;100133.53;4991887;28;6986;-77
2022/11/25 05:29:51;;;;;;;;;;;;;;;13.54;57.67;100127.41;4989158;28;6922;-76
2022/11/25 05:32:17;;;;;;;;;;;;;;;13.49;57.99;100128.09;4995490;28;7253;-77
2022/11/25 05:34:43;;;;;;;;;;;;;;;13.44;57.60;100131.41;5003452;28;6779;-76
2022/11/25 05:37:12;;;;;;;;;;;;;;;13.39;57.82;100127.78;5022529;28;8517;-77
2022/11/25 05:39:38;;;;;;;;;;;;;;;13.35;58.08;100131.09;5008673;28;6796;-77
2022/11/25 05:42:04;;;;;;;;;;;;;;;13.28;57.96;100134.28;5022253;28;6983;-77
2022/11/25 05:44:29;;;;;;;;;;;;;;;13.22;58.16;100134.06;5006875;28;10482;-77
2022/11/25 05:46:55;;;;;;;;;;;;;;;13.16;57.55;100140.78;5005297;28;6776;-76
2022/11/25 05:49:21;;;;;;;;;;;;;;;13.10;58.04;100150.84;5040704;28;7034;-77
2022/11/25 05:51:47;;;;;;;;;;;;;;;13.05;58.13;100147.28;5005850;28;7113;-77
2022/11/25 05:54:13;;;;;;;;;;;;;;;13.00;58.62;100147.13;5002552;28;6800;-76
2022/11/25 05:56:39;;;;;;;;;;;;;;;12.98;58.17;100153.03;4998454;28;6939;-76
2022/11/25 05:59:06;;;;;;;;;;;;;;;12.95;58.86;100155.50;5003276;28;6955;-77
2022/11/25 06:01:32;;;;;;;;;;;;;;;12.90;58.39;100156.19;4999474;28;7174;-77
2022/11/25 06:04:03;;;;;;;;;;;;;;;12.88;58.72;100159.53;5002332;28;7130;-77
2022/11/25 06:06:30;;;;;;;;;;;;;;;12.86;58.66;100156.03;5017174;28;6993;-78
2022/11/25 06:08:56;;;;;;;;;;;;;;;12.86;58.83;100164.63;5004216;28;6972;-77
2022/11/25 06:11:22;;;;;;;;;;;;;;;12.83;58.62;100151.66;5004837;28;7556;-77
2022/11/25 06:13:47;;;;;;;;;;;;;;;12.81;58.41;100163.59;5005947;28;10000;-77
2022/11/25 06:16:21;;;;;;;;;;;;;;;12.78;58.65;100159.22;5001018;28;6920;-75
2022/11/25 06:18:47;;;;;;;;;;;;;;;12.75;58.99;100158.25;5007071;28;6992;-77
2022/11/25 06:21:14;;;;;;;;;;;;;;;12.72;58.69;100165.84;5005909;28;7435;-77
2022/11/25 06:23:39;;;;;;;;;;;;;;;12.69;59.21;100178.59;5004801;28;6784;-75
2022/11/25 06:26:13;;;;;;;;;;;;;;;12.66;58.49;100175.94;5003537;28;6939;-78
2022/11/25 06:28:39;;;;;;;;;;;;;;;12.63;58.76;100182.69;5039099;28;6816;-77
2022/11/25 06:31:14;;;;;;;;;;;;;;;12.62;58.73;100182.66;5004407;28;6772;-77
2022/11/25 06:33:41;;;;;;;;;;;;;;;12.58;59.39;100178.19;5017395;28;7146;-77
2022/11/25 06:36:15;;;;;;;;;;;;;;;12.56;58.92;100179.84;5007266;28;6979;-76
2022/11/25 06:38:47;;;;;;;;;;;;;;;12.52;59.10;100178.84;5004478;28;7251;-76
2022/11/25 06:41:15;;;;;;;;;;;;;;;12.48;58.66;100184.72;4979305;28;8386;-77
2022/11/25 06:43:41;;;;;;;;;;;;;;;12.44;58.60;100191.44;5010310;28;7317;-77
2022/11/25 06:46:11;;;;;;;;;;;;;;;12.41;58.91;100181.03;5020431;28;7187;-77
2022/11/25 06:48:37;;;;;;;;;;;;;;;12.40;58.88;100191.25;5004839;28;6833;-76
2022/11/25 06:51:08;;;;;;;;;;;;;;;12.39;59.66;100197.22;5029812;28;6949;-76
2022/11/25 06:53:35;;;;;;;;;;;;;;;12.36;59.00;100201.44;4998075;28;7019;-76
2022/11/25 06:56:02;;;;;;;;;;;;;;;12.36;59.65;100206.59;5004129;28;6835;-77
2022/11/25 06:58:29;;;;;;;;;;;;;;;12.33;59.38;100206.44;4999664;28;7065;-77
2022/11/25 07:01:10;;;;;;;;;;;;;;;12.32;59.10;100214.97;5014596;28;6989;-75
2022/11/25 07:03:36;;;;;;;;;;;;;;;12.32;59.96;100211.53;4984583;28;6992;-76
2022/11/25 07:06:02;;;;;;;;;;;;;;;12.33;59.91;100216.72;5001914;28;7791;-76
2022/11/25 07:08:29;;;;;;;;;;;;;;;12.34;59.22;100215.03;5018214;28;8562;-78
2022/11/25 07:11:00;;;;;;;;;;;;;;;12.33;59.32;100227.00;5013544;28;7211;-77
2022/11/25 07:13:26;;;;;;;;;;;;;;;12.33;59.75;100237.28;4989841;28;7075;-79
2022/11/25 07:15:51;;;;;;;;;;;;;;;12.32;59.36;100230.38;5030429;28;6975;-77
2022/11/25 07:18:17;;;;;;;;;;;;;;;12.32;59.58;100239.81;5031637;28;6968;-77
2022/11/25 07:20:43;;;;;;;;;;;;;;;12.32;59.08;100250.09;5003281;28;6779;-77
2022/11/25 07:23:08;;;;;;;;;;;;;;;12.29;59.10;100253.41;5018753;28;7202;-78
2022/11/25 07:25:34;;;;;;;;;;;;;;;12.27;58.95;100249.91;5003873;28;6776;-78
2022/11/25 07:28:00;;;;;;;;;;;;;;;12.25;59.81;100259.22;4986003;28;6959;-76
2022/11/25 07:30:25;;;;;;;;;;;;;;;12.25;59.66;100260.94;5002747;28;6946;-78
2022/11/25 07:32:51;;;;;;;;;;;;;;;12.24;59.58;100262.63;5038577;28;6767;-76
2022/11/25 07:35:16;;;;;;;;;;;;;;;12.24;59.94;100264.34;5019789;28;7010;-78
2022/11/25 07:37:42;;;;;;;;;;;;;;;12.25;59.46;100269.50;5023468;28;7134;-76
2022/11/25 07:40:11;;;;;;;;;;;;;;;12.26;59.58;100275.53;5024305;28;7318;-78
2022/11/25 07:42:37;;;;;;;;;;;;;;;12.25;60.01;100273.78;5039575;28;6820;-77
2022/11/25 07:45:03;;;;;;;;;;;;;;;12.25;59.72;100279.78;5009343;28;7030;-77
2022/11/25 07:47:29;;;;;;;;;;;;;;;12.28;60.01;100284.19;5006477;28;7091;-77
2022/11/25 07:49:54;;;;;;;;;;;;;;;12.29;60.36;100284.25;5025077;28;6940;-75
2022/11/25 07:52:20;;;;;;;;;;;;;;;12.31;60.33;100290.31;5008922;28;6792;-78
2022/11/25 07:54:46;;;;;;;;;;;;;;;12.32;60.07;100293.78;5007235;28;6934;-78
2022/11/25 07:57:11;;;;;;;;;;;;;;;12.34;59.74;100307.56;5008980;28;6940;-78
2022/11/25 07:59:40;;;;;;;;;;;;;;;12.38;60.24;100311.13;4992535;28;7005;-77
2022/11/25 08:02:08;;;;;;;;;;;;;;;12.40;59.67;100314.63;5033875;28;6811;-78
2022/11/25 08:04:36;;;;;;;;;;;;;;;12.41;60.28;100313.81;5004246;28;7079;-77
2022/11/25 08:07:02;;;;;;;;;;;;;;;12.43;59.96;100314.75;5000202;28;6880;-77
2022/11/25 08:09:27;;;;;;;;;;;;;;;12.45;60.23;100328.53;5006217;28;7059;-77
2022/11/25 08:11:53;;;;;;;;;;;;;;;12.46;60.24;100327.72;4996621;28;6961;-76
2022/11/25 08:14:20;;;;;;;;;;;;;;;12.50;59.68;100332.16;5002906;28;7055;-75
2022/11/25 08:16:45;;;;;;;;;;;;;;;12.53;60.25;100332.28;4982367;28;7001;-76
2022/11/25 08:19:15;;;;;;;;;;;;;;;12.57;59.61;100336.72;5002785;28;8135;-75
2022/11/25 08:21:41;;;;;;;;;;;;;;;12.60;59.40;100343.66;5000970;28;7230;-75
2022/11/25 08:24:14;;;;;;;;;;;;;;;12.63;59.58;100343.81;4992265;28;6796;-75
2022/11/25 08:26:40;;;;;;;;;;;;;;;12.66;60.22;100350.78;5002990;28;6815;-74
2022/11/25 08:29:14;;;;;;;;;;;;;;;12.67;60.14;100355.94;4999042;28;6851;-76
2022/11/25 08:31:41;;;;;;;;;;;;;;;12.71;59.86;100356.94;4994447;28;6819;-76
2022/11/25 08:34:08;;;;;;;;;;;;;;;12.74;59.99;100364.78;5003201;28;7010;-76
2022/11/25 08:36:35;;;;;;;;;;;;;;;12.77;60.13;100367.47;4999259;28;6884;-76
2022/11/25 08:39:06;;;;;;;;;;;;;;;12.80;60.38;100366.72;5003188;28;6868;-77
2022/11/25 08:41:36;;;;;;;;;;;;;;;12.86;60.30;100377.22;5001155;28;9445;-76
2022/11/25 08:44:06;;;;;;;;;;;;;;;12.91;60.21;100374.00;5000613;28;8232;-76
2022/11/25 08:46:36;;;;;;;;;;;;;;;12.95;59.53;100377.59;5004697;28;6860;-75
2022/11/25 08:49:04;;;;;;;;;;;;;;;13.01;60.22;100371.78;4986306;28;6979;-75
2022/11/25 08:51:33;;;;;;;;;;;;;;;13.06;59.43;100360.00;5003329;28;6796;-76
2022/11/25 08:54:00;;;;;;;;;;;;;;;13.11;59.75;100373.03;4986169;28;7284;-75
2022/11/25 08:56:26;;;;;;;;;;;;;;;13.15;59.47;100378.34;4994317;28;6808;-76
2022/11/25 08:58:54;;;;;;;;;;;;;;;13.20;59.77;100381.94;5031394;28;7151;-77
2022/11/25 09:01:21;;;;;;;;;;;;;;;13.27;59.18;100377.03;4998585;28;6789;-76
2022/11/25 09:03:54;;;;;;;;;;;;;;;13.33;59.14;100377.28;5030407;28;6784;-74
2022/11/25 09:06:20;;;;;;;;;;;;;;;13.36;59.75;100373.91;4996745;28;7026;-73
2022/11/25 09:08:47;;;;;;;;;;;;;;;13.40;59.04;100376.66;4997179;28;9943;-77
2022/11/25 09:11:13;;;;;;;;;;;;;;;13.44;59.62;100376.00;5000906;28;7844;-76
2022/11/25 09:13:38;;;;;;;;;;;;;;;13.50;58.91;100382.16;5029989;28;6791;-77
2022/11/25 09:16:05;;;;;;;;;;;;;;;13.56;59.83;100388.41;4994244;28;7151;-77
2022/11/25 09:18:31;;;;;;;;;;;;;;;13.63;59.51;100388.63;4992666;28;7699;-76
2022/11/25 09:20:58;;;;;;;;;;;;;;;13.67;58.63;100395.66;5008170;28;7155;-76
2022/11/25 09:23:25;;;;;;;;;;;;;;;13.75;58.47;100402.81;4987542;28;6804;-77
2022/11/25 09:25:55;;;;;;;;;;;;;;;13.85;59.05;100396.28;4995258;28;7141;-75
2022/11/25 09:28:23;;;;;;;;;;;;;;;13.95;59.21;100407.78;4999338;28;6860;-75
2022/11/25 09:30:49;;;;;;;;;;;;;;;14.01;58.79;100414.84;4994947;28;6887;-76
2022/11/25 09:33:16;;;;;;;;;;;;;;;14.07;58.94;100412.50;5000742;28;6784;-75
2022/11/25 09:35:44;;;;;;;;;;;;;;;14.15;58.84;100420.47;4998687;28;7283;-77
2022/11/25 09:38:10;;;;;;;;;;;;;;;14.23;58.16;100421.59;4995194;28;7459;-75
2022/11/25 09:40:56;;;;;;;;;;;;;;;14.32;57.59;100422.75;4992616;28;7192;-75
2022/11/25 09:47:07;;;;;;;;;;;;;;;14.56;58.40;100427.81;5021544;28;6812;-77
2022/11/25 09:49:59;;;;;;;;;;;;;;;14.70;57.15;100431.69;5005436;28;8895;-76
2022/11/25 09:52:50;;;;;;;;;;;;;;;14.81;57.76;100442.41;5001296;28;7114;-75
2022/11/25 09:55:29;;;;;;;;;;;;;;;14.98;57.41;100439.47;5016523;28;7318;-75
2022/11/25 09:58:19;;;;;;;;;;;;;;;15.23;57.32;100446.25;5006518;28;7019;-75
2022/11/25 10:00:49;;;;;;;;;;;;;;;15.55;56.14;100446.28;4999370;28;6819;-75
2022/11/25 10:03:53;;;;;;;;;;;;;;;15.78;55.01;100445.19;4994221;28;9445;-76
2022/11/25 10:06:27;;;;;;;;;;;;;;;16.15;54.65;100461.72;4999524;28;6883;-75
2022/11/25 10:09:03;;;;;;;;;;;;;;;16.60;54.40;100462.84;5000480;28;6808;-75
2022/11/25 10:11:48;;;;;;;;;;;;;;;16.73;53.38;100464.00;5031476;28;8100;-75
2022/11/25 10:14:38;;;;;;;;;;;;;;;16.70;53.44;100466.50;5003440;28;6877;-76
2022/11/25 10:17:43;;;;;;;;;;;;;;;16.75;53.68;100471.78;5027813;28;6808;-76
2022/11/25 10:20:34;;;;;;;;;;;;;;;16.72;53.07;100474.31;5004492;28;7380;-76
2022/11/25 10:23:07;;;;;;;;;;;;;;;16.64;53.39;100468.97;4983488;28;6988;-75
2022/11/25 10:25:47;;;;;;;;;;;;;;;16.64;53.29;100477.56;5001625;28;7118;-76
2022/11/25 10:28:20;;;;;;;;;;;;;;;16.69;53.05;100482.00;5001864;28;7344;-75
2022/11/25 10:31:11;;;;;;;;;;;;;;;16.61;52.69;100481.81;4998349;28;6884;-76
2022/11/25 10:33:58;;;;;;;;;;;;;;;16.47;53.04;100477.16;4999016;28;6962;-76
2022/11/25 10:36:35;;;;;;;;;;;;;;;16.41;52.96;100487.34;4993747;28;7003;-76
2022/11/25 10:39:23;;;;;;;;;;;;;;;16.39;52.86;100501.97;5008284;28;6811;-77
2022/11/25 10:42:02;;;;;;;;;;;;;;;16.47;52.61;100491.84;4998345;28;7006;-77
2022/11/25 10:44:35;;;;;;;;;;;;;;;16.41;52.55;100491.66;4998128;28;6993;-76
2022/11/25 10:47:00;;;;;;;;;;;;;;;16.49;52.23;100497.91;4986536;28;8513;-76
2022/11/25 10:49:50;;;;;;;;;;;;;;;16.56;52.27;100492.03;5032420;28;7295;-76
2022/11/25 10:52:24;;;;;;;;;;;;;;;16.90;52.33;100499.75;5002438;28;6820;-77
2022/11/25 10:55:12;;;;;;;;;;;;;;;17.60;51.44;100497.00;5004453;28;7144;-76
2022/11/25 10:57:38;;;;;;;;;;;;;;;18.17;50.12;100504.19;4998241;28;6946;-77
2022/11/25 11:00:06;;;;;;;;;;;;;;;18.57;49.05;100504.88;5001698;28;7214;-77
2022/11/25 11:02:40;;;;;;;;;;;;;;;18.69;48.37;100509.41;4991840;28;6792;-76
2022/11/25 11:05:08;;;;;;;;;;;;;;;18.76;48.00;100504.31;5002580;28;6808;-77
2022/11/25 11:07:42;;;;;;;;;;;;;;;18.91;47.71;100509.72;4998369;28;7162;-75
2022/11/25 11:10:14;;;;;;;;;;;;;;;19.13;47.00;100510.97;4973691;28;7069;-77
2022/11/25 11:13:01;;;;;;;;;;;;;;;19.47;46.64;100515.75;5000970;28;6894;-76
2022/11/25 11:15:32;;;;;;;;;;;;;;;19.54;46.22;100525.38;5003007;28;6871;-76
2022/11/25 11:18:17;;;;;;;;;;;;;;;19.51;46.67;100524.47;5030462;28;7348;-77
2022/11/25 11:20:52;;;;;;;;;;;;;;;19.46;46.04;100518.31;5029634;28;7004;-76
2022/11/25 11:23:19;;;;;;;;;;;;;;;19.38;45.94;100531.22;5002025;28;6815;-77
2022/11/25 11:26:02;;;;;;;;;;;;;;;19.42;46.16;100541.69;4999349;28;6784;-76
2022/11/25 11:28:35;;;;;;;;;;;;;;;19.44;45.30;100544.31;4995881;28;6994;-77
2022/11/25 11:31:21;;;;;;;;;;;;;;;19.27;45.41;100547.53;4989025;28;6784;-76
2022/11/25 11:34:08;;;;;;;;;;;;;;;18.83;45.91;100548.56;4982127;28;7269;-77
2022/11/25 11:37:14;;;;;;;;;;;;;;;18.35;45.95;100547.75;5008890;28;7000;-77
2022/11/25 11:40:20;;;;;;;;;;;;;;;17.89;46.66;100556.34;4990793;28;7191;-76
2022/11/25 11:43:28;;;;;;;;;;;;;;;17.53;48.02;100559.03;4999583;28;7052;-76
2022/11/25 11:46:31;;;;;;;;;;;;;;;17.71;48.34;100554.25;5002727;28;6808;-75
2022/11/25 11:49:31;;;;;;;;;;;;;;;18.41;47.18;100562.56;4997263;28;7070;-75
2022/11/25 11:52:22;;;;;;;;;;;;;;;18.94;46.66;100555.66;4994455;28;7226;-76
2022/11/25 11:55:30;;;;;;;;;;;;;;;19.25;44.87;100562.22;5003224;28;7070;-77
2022/11/25 11:58:23;;;;;;;;;;;;;;;19.01;44.26;100550.59;4992160;28;6823;-78
2022/11/25 12:01:23;;;;;;;;;;;;;;;18.56;45.05;100555.03;4991535;28;6909;-76
2022/11/25 12:04:18;;;;;;;;;;;;;;;18.08;45.54;100563.66;4972561;28;7328;-77
2022/11/25 12:07:22;;;;;;;;;;;;;;;17.67;46.79;100564.50;4983742;28;7000;-76
2022/11/25 12:10:14;;;;;;;;;;;;;;;17.46;47.34;100558.91;4987743;28;6928;-76
2022/11/25 12:13:35;;;;;;;;;;;;;;;17.38;47.45;100572.50;4992714;28;7019;-77
2022/11/25 12:16:06;;;;;;;;;;;;;;;17.31;47.76;100580.16;4998624;28;7326;-76
2022/11/25 12:19:29;;;;;;;;;;;;;;;17.27;47.33;100582.66;5002550;28;7208;-76
2022/11/25 12:22:08;;;;;;;;;;;;;;;17.16;47.64;100592.75;5014135;28;7018;-76
2022/11/25 12:24:55;;;;;;;;;;;;;;;17.12;47.92;100596.09;5029517;28;7049;-76
2022/11/25 12:27:33;;;;;;;;;;;;;;;17.10;47.76;100602.97;4990971;28;7212;-76
2022/11/25 12:30:06;;;;;;;;;;;;;;;17.11;47.76;100600.41;4990935;28;6819;-77
2022/11/25 12:33:01;;;;;;;;;;;;;;;17.14;48.16;100599.59;4993933;28;7298;-76
2022/11/25 12:36:02;;;;;;;;;;;;;;;17.06;47.39;100605.47;4993033;28;6815;-76
2022/11/25 12:38:52;;;;;;;;;;;;;;;16.99;47.72;100603.50;5020417;28;7244;-75
2022/11/25 12:41:42;;;;;;;;;;;;;;;16.88;47.94;100612.72;4999230;28;6925;-76
2022/11/25 12:44:36;;;;;;;;;;;;;;;16.72;47.67;100611.47;4992623;28;7013;-77
2022/11/25 12:47:02;;;;;;;;;;;;;;;16.54;47.98;100619.63;4995296;28;6835;-75
2022/11/25 12:49:55;;;;;;;;;;;;;;;16.33;48.25;100619.06;5009174;28;6713;-75
2022/11/25 12:52:43;;;;;;;;;;;;;;;16.20;48.73;100620.44;5016630;28;6816;-76
2022/11/25 12:55:24;;;;;;;;;;;;;;;16.10;49.14;100631.34;5004100;28;7037;-75
2022/11/25 12:58:31;;;;;;;;;;;;;;;16.05;48.75;100628.63;4990160;28;6788;-76
2022/11/25 13:01:09;;;;;;;;;;;;;;;16.00;49.46;100626.75;4981812;28;6987;-76
2022/11/25 13:04:08;;;;;;;;;;;;;;;15.96;49.55;100634.41;5009129;28;6966;-76
2022/11/25 13:07:19;;;;;;;;;;;;;;;15.93;49.44;100643.78;4984225;28;7001;-77
2022/11/25 13:10:39;;;;;;;;;;;;;;;15.88;49.70;100637.53;4988297;28;6848;-75
2022/11/25 13:13:21;;;;;;;;;;;;;;;15.88;49.65;100645.31;4982910;28;6808;-74
2022/11/25 13:15:52;;;;;;;;;;;;;;;15.87;49.36;100644.44;5001222;28;6827;-76
2022/11/25 13:18:25;;;;;;;;;;;;;;;15.89;49.63;100650.53;4985483;28;8576;-77
2022/11/25 13:20:53;;;;;;;;;;;;;;;15.90;49.62;100647.16;4980941;28;6804;-75
2022/11/25 13:23:30;;;;;;;;;;;;;;;15.89;49.43;100658.28;4972148;28;8811;-76
2022/11/25 13:26:27;;;;;;;;;;;;;;;15.88;49.34;100660.81;4983234;28;6820;-76
2022/11/25 13:28:53;;;;;;;;;;;;;;;15.83;49.55;100665.84;4978085;28;6860;-75